createdAt,value
2018-10-02T00:00:59.377Z,927.39
2018-10-02T00:01:59.432Z,927.41
2018-10-02T00:02:59.470Z,927.43
2018-10-02T00:03:59.519Z,927.43
2018-10-02T00:04:59.640Z,927.42
2018-10-02T00:05:59.609Z,927.40
2018-10-02T00:06:59.664Z,927.40
2018-10-02T00:07:59.707Z,927.43
2018-10-02T00:08:59.766Z,927.40
2018-10-02T00:09:59.810Z,927.41
2018-10-02T00:10:59.842Z,927.42
2018-10-02T00:11:59.884Z,927.44
2018-10-02T00:12:59.964Z,927.46
2018-10-02T00:13:59.942Z,927.49
2018-10-02T00:15:00.013Z,927.53
2018-10-02T00:16:00.099Z,927.54
2018-10-02T00:17:00.083Z,927.53
2018-10-02T00:18:00.148Z,927.54
2018-10-02T00:19:00.226Z,927.55
2018-10-02T00:20:00.264Z,927.57
2018-10-02T00:21:00.291Z,927.59
2018-10-02T00:22:00.309Z,927.60
2018-10-02T00:23:00.388Z,927.66
2018-10-02T00:24:00.422Z,927.66
2018-10-02T00:25:00.464Z,927.70
2018-10-02T00:26:00.513Z,927.71
2018-10-02T00:27:00.566Z,927.74
2018-10-02T00:28:00.614Z,927.68
2018-10-02T00:29:00.691Z,927.68
2018-10-02T00:30:00.703Z,927.66
2018-10-02T00:31:00.776Z,927.70
2018-10-02T00:32:00.985Z,927.67
2018-10-02T00:33:00.836Z,927.71
2018-10-02T00:34:00.923Z,927.69
2018-10-02T00:35:00.902Z,927.71
2018-10-02T00:36:00.979Z,927.70
2018-10-02T00:37:01.015Z,927.67
2018-10-02T00:38:01.094Z,927.62
2018-10-02T00:39:01.114Z,927.65
2018-10-02T00:40:01.124Z,927.65
2018-10-02T00:41:01.187Z,927.59
2018-10-02T00:42:01.240Z,927.62
2018-10-02T00:43:01.272Z,927.60
2018-10-02T00:44:01.315Z,927.60
2018-10-02T00:45:01.432Z,927.63
2018-10-02T00:46:01.455Z,927.61
2018-10-02T00:47:01.457Z,927.62
2018-10-02T00:48:01.536Z,927.65
2018-10-02T00:49:01.554Z,927.63
2018-10-02T00:50:01.629Z,927.64
2018-10-02T00:51:01.647Z,927.63
2018-10-02T00:52:01.730Z,927.61
2018-10-02T00:53:01.711Z,927.61
2018-10-02T00:54:01.772Z,927.64
2018-10-02T00:55:01.866Z,927.65
2018-10-02T00:56:01.964Z,927.58
2018-10-02T00:57:01.915Z,927.60
2018-10-02T00:58:01.946Z,927.57
2018-10-02T00:59:02.019Z,927.56
2018-10-02T01:00:02.046Z,927.57
2018-10-02T01:01:02.153Z,927.57
2018-10-02T01:02:02.140Z,927.57
2018-10-02T01:03:02.179Z,927.61
2018-10-02T01:04:02.236Z,927.60
2018-10-02T01:05:02.272Z,927.65
2018-10-02T01:06:02.400Z,927.63
2018-10-02T01:07:02.355Z,927.62
2018-10-02T01:08:02.415Z,927.66
2018-10-02T01:09:02.468Z,927.67
2018-10-02T01:10:02.523Z,927.72
2018-10-02T01:11:02.555Z,927.69
2018-10-02T01:12:02.666Z,927.74
2018-10-02T01:13:02.645Z,927.71
2018-10-02T01:14:02.678Z,927.72
2018-10-02T01:15:02.748Z,927.72
2018-10-02T01:16:02.783Z,927.75
2018-10-02T01:17:02.803Z,927.73
2018-10-02T01:18:02.872Z,927.75
2018-10-02T01:19:02.933Z,927.72
2018-10-02T01:20:02.970Z,927.72
2018-10-02T01:21:03.017Z,927.69
2018-10-02T01:22:03.059Z,927.66
2018-10-02T01:23:03.099Z,927.64
2018-10-02T01:24:03.172Z,927.59
2018-10-02T01:25:03.233Z,927.58
2018-10-02T01:26:03.261Z,927.63
2018-10-02T01:27:03.323Z,927.63
2018-10-02T01:28:03.354Z,927.65
2018-10-02T01:29:03.406Z,927.69
2018-10-02T01:30:03.451Z,927.74
2018-10-02T01:31:03.500Z,927.74
2018-10-02T01:32:03.535Z,927.75
2018-10-02T01:33:03.661Z,927.74
2018-10-02T01:34:03.665Z,927.81
2018-10-02T01:35:03.710Z,927.76
2018-10-02T01:36:03.754Z,927.76
2018-10-02T01:37:03.801Z,927.77
2018-10-02T01:38:04.055Z,927.71
2018-10-02T01:39:03.894Z,927.73
2018-10-02T01:40:03.902Z,927.73
2018-10-02T01:41:03.924Z,927.76
2018-10-02T01:42:03.953Z,927.76
2018-10-02T01:43:04.004Z,927.71
2018-10-02T01:44:04.042Z,927.79
2018-10-02T01:45:04.075Z,927.78
2018-10-02T01:46:04.150Z,927.80
2018-10-02T01:47:04.185Z,927.85
2018-10-02T01:48:04.231Z,927.84
2018-10-02T01:49:04.257Z,927.86
2018-10-02T01:50:04.309Z,927.87
2018-10-02T01:51:04.365Z,927.82
2018-10-02T01:52:04.400Z,927.81
2018-10-02T01:53:04.435Z,927.84
2018-10-02T01:54:04.576Z,927.85
2018-10-02T01:55:04.577Z,927.90
2018-10-02T01:56:04.576Z,927.88
2018-10-02T01:57:04.631Z,927.90
2018-10-02T01:58:04.664Z,927.87
2018-10-02T01:59:04.810Z,927.88
2018-10-02T02:00:04.737Z,927.86
2018-10-02T02:01:04.813Z,927.86
2018-10-02T02:02:04.854Z,927.84
2018-10-02T02:03:04.906Z,927.86
2018-10-02T02:04:05.040Z,927.82
2018-10-02T02:05:05.047Z,927.82
2018-10-02T02:06:05.072Z,927.82
2018-10-02T02:07:05.123Z,927.80
2018-10-02T02:08:05.123Z,927.82
2018-10-02T02:09:05.357Z,927.82
2018-10-02T02:10:05.211Z,927.82
2018-10-02T02:11:05.264Z,927.77
2018-10-02T02:12:05.289Z,927.78
2018-10-02T02:13:05.316Z,927.79
2018-10-02T02:14:05.463Z,927.76
2018-10-02T02:15:05.534Z,927.80
2018-10-02T02:16:05.471Z,927.82
2018-10-02T02:17:05.614Z,927.82
2018-10-02T02:18:05.550Z,927.83
2018-10-02T02:19:05.622Z,927.82
2018-10-02T02:20:05.663Z,927.81
2018-10-02T02:21:05.718Z,927.75
2018-10-02T02:22:05.787Z,927.74
2018-10-02T02:23:05.811Z,927.73
2018-10-02T02:24:05.834Z,927.68
2018-10-02T02:25:05.911Z,927.71
2018-10-02T02:26:05.913Z,927.70
2018-10-02T02:27:05.972Z,927.72
2018-10-02T02:28:06.002Z,927.73
2018-10-02T02:29:06.055Z,927.73
2018-10-02T02:30:06.153Z,927.76
2018-10-02T02:31:06.154Z,927.73
2018-10-02T02:32:06.190Z,927.74
2018-10-02T02:33:06.247Z,927.72
2018-10-02T02:34:06.303Z,927.71
2018-10-02T02:35:06.333Z,927.67
2018-10-02T02:36:06.436Z,927.66
2018-10-02T02:37:06.443Z,927.63
2018-10-02T02:38:06.453Z,927.62
2018-10-02T02:39:06.511Z,927.58
2018-10-02T02:40:06.649Z,927.60
2018-10-02T02:41:06.600Z,927.52
2018-10-02T02:42:06.658Z,927.53
2018-10-02T02:43:06.698Z,927.56
2018-10-02T02:44:06.767Z,927.51
2018-10-02T02:45:06.790Z,927.50
2018-10-02T02:46:07.114Z,927.50
2018-10-02T02:47:06.882Z,927.48
2018-10-02T02:48:06.924Z,927.47
2018-10-02T02:49:06.996Z,927.42
2018-10-02T02:50:07.021Z,927.41
2018-10-02T02:51:07.058Z,927.39
2018-10-02T02:52:07.106Z,927.41
2018-10-02T02:53:07.172Z,927.39
2018-10-02T02:54:07.202Z,927.36
2018-10-02T02:55:07.252Z,927.36
2018-10-02T02:56:07.272Z,927.32
2018-10-02T02:57:07.343Z,927.27
2018-10-02T02:58:07.366Z,927.29
2018-10-02T02:59:07.388Z,927.25
2018-10-02T03:00:07.455Z,927.22
2018-10-02T03:01:07.513Z,927.24
2018-10-02T03:02:07.535Z,927.24
2018-10-02T03:03:07.590Z,927.25
2018-10-02T03:04:07.650Z,927.24
2018-10-02T03:05:07.733Z,927.22
2018-10-02T03:06:07.717Z,927.19
2018-10-02T03:07:07.761Z,927.17
2018-10-02T03:08:07.826Z,927.10
2018-10-02T03:09:07.859Z,927.07
2018-10-02T03:10:07.913Z,927.00
2018-10-02T03:11:07.955Z,926.98
2018-10-02T03:12:07.978Z,926.95
2018-10-02T03:13:08.149Z,926.96
2018-10-02T03:14:08.088Z,926.97
2018-10-02T03:15:08.132Z,926.97
2018-10-02T03:16:08.173Z,927.01
2018-10-02T03:17:08.204Z,926.96
2018-10-02T03:18:08.306Z,926.96
2018-10-02T03:19:08.575Z,926.96
2018-10-02T03:20:08.347Z,926.91
2018-10-02T03:21:08.406Z,926.88
2018-10-02T03:22:08.455Z,926.88
2018-10-02T03:23:08.501Z,926.87
2018-10-02T03:24:08.618Z,926.84
2018-10-02T03:25:08.606Z,926.84
2018-10-02T03:26:08.609Z,926.80
2018-10-02T03:27:08.667Z,926.80
2018-10-02T03:28:08.711Z,926.84
2018-10-02T03:29:08.750Z,926.83
2018-10-02T03:30:08.884Z,926.80
2018-10-02T03:31:08.845Z,926.79
2018-10-02T03:32:08.897Z,926.74
2018-10-02T03:33:08.922Z,926.75
2018-10-02T03:34:08.978Z,926.75
2018-10-02T03:35:09.282Z,926.73
2018-10-02T03:36:09.050Z,926.69
2018-10-02T03:37:09.100Z,926.71
2018-10-02T03:38:09.148Z,926.71
2018-10-02T03:39:09.197Z,926.69
2018-10-02T03:40:09.220Z,926.71
2018-10-02T03:41:09.344Z,926.68
2018-10-02T03:42:09.374Z,926.68
2018-10-02T03:43:09.352Z,926.60
2018-10-02T03:44:09.461Z,926.59
2018-10-02T03:45:09.474Z,926.59
2018-10-02T03:46:09.527Z,926.55
2018-10-02T03:47:09.539Z,926.53
2018-10-02T03:48:09.628Z,926.53
2018-10-02T03:49:09.687Z,926.46
2018-10-02T03:50:09.681Z,926.48
2018-10-02T03:51:09.723Z,926.46
2018-10-02T03:52:09.781Z,926.46
2018-10-02T03:53:09.813Z,926.46
2018-10-02T03:54:09.850Z,926.48
2018-10-02T03:55:09.907Z,926.45
2018-10-02T03:56:09.948Z,926.48
2018-10-02T03:57:10.090Z,926.45
2018-10-02T03:58:10.053Z,926.42
2018-10-02T03:59:10.084Z,926.36
2018-10-02T04:00:10.112Z,926.38
2018-10-02T04:01:10.188Z,926.36
2018-10-02T04:02:10.219Z,926.38
2018-10-02T04:03:10.293Z,926.39
2018-10-02T04:04:10.348Z,926.40
2018-10-02T04:05:10.331Z,926.40
2018-10-02T04:06:10.405Z,926.44
2018-10-02T04:07:10.536Z,926.39
2018-10-02T04:08:10.477Z,926.42
2018-10-02T04:09:10.528Z,926.40
2018-10-02T04:10:10.579Z,926.38
2018-10-02T04:11:10.622Z,926.39
2018-10-02T04:12:10.688Z,926.37
2018-10-02T04:13:10.722Z,926.37
2018-10-02T04:14:10.768Z,926.34
2018-10-02T04:15:10.795Z,926.37
2018-10-02T04:16:10.852Z,926.34
2018-10-02T04:17:10.899Z,926.33
2018-10-02T04:18:11.043Z,926.36
2018-10-02T04:19:10.968Z,926.39
2018-10-02T04:20:11.017Z,926.40
2018-10-02T04:21:11.063Z,926.41
2018-10-02T04:22:11.165Z,926.45
2018-10-02T04:23:11.141Z,926.47
2018-10-02T04:24:11.511Z,926.46
2018-10-02T04:25:11.253Z,926.47
2018-10-02T04:26:11.274Z,926.52
2018-10-02T04:27:11.394Z,926.49
2018-10-02T04:28:11.381Z,926.47
2018-10-02T04:29:11.525Z,926.47
2018-10-02T04:30:11.480Z,926.45
2018-10-02T04:31:11.528Z,926.40
2018-10-02T04:32:11.564Z,926.39
2018-10-02T04:33:11.606Z,926.37
2018-10-02T04:34:11.754Z,926.32
2018-10-02T04:35:11.670Z,926.29
2018-10-02T04:36:11.744Z,926.32
2018-10-02T04:37:11.780Z,926.31
2018-10-02T04:38:11.817Z,926.32
2018-10-02T04:39:11.981Z,926.39
2018-10-02T04:40:11.903Z,926.38
2018-10-02T04:41:11.970Z,926.40
2018-10-02T04:42:12.000Z,926.40
2018-10-02T04:43:12.034Z,926.42
2018-10-02T04:44:12.108Z,926.37
2018-10-02T04:45:12.238Z,926.34
2018-10-02T04:46:12.166Z,926.34
2018-10-02T04:47:12.206Z,926.34
2018-10-02T04:48:12.276Z,926.31
2018-10-02T04:49:12.319Z,926.28
2018-10-02T04:50:12.368Z,926.25
2018-10-02T04:51:12.409Z,926.23
2018-10-02T04:52:12.454Z,926.21
2018-10-02T04:53:12.506Z,926.22
2018-10-02T04:54:12.548Z,926.20
2018-10-02T04:55:12.716Z,926.21
2018-10-02T04:56:12.805Z,926.21
2018-10-02T04:57:12.719Z,926.23
2018-10-02T04:58:12.748Z,926.27
2018-10-02T04:59:12.754Z,926.30
2018-10-02T05:00:12.793Z,926.28
2018-10-02T05:01:13.134Z,926.30
2018-10-02T05:02:13.003Z,926.30
2018-10-02T05:03:12.962Z,926.26
2018-10-02T05:04:13.006Z,926.23
2018-10-02T05:05:13.032Z,926.20
2018-10-02T05:06:13.095Z,926.18
2018-10-02T05:07:13.134Z,926.13
2018-10-02T05:08:13.164Z,926.13
2018-10-02T05:09:13.219Z,926.14
2018-10-02T05:10:13.272Z,926.19
2018-10-02T05:11:13.302Z,926.15
2018-10-02T05:12:13.356Z,926.17
2018-10-02T05:13:13.442Z,926.14
2018-10-02T05:14:13.529Z,926.14
2018-10-02T05:15:13.500Z,926.09
2018-10-02T05:16:13.526Z,926.13
2018-10-02T05:17:13.574Z,926.13
2018-10-02T05:18:13.607Z,926.13
2018-10-02T05:19:13.646Z,926.12
2018-10-02T05:20:13.687Z,926.09
2018-10-02T05:21:13.756Z,926.07
2018-10-02T05:22:13.904Z,926.02
2018-10-02T05:23:13.848Z,926.05
2018-10-02T05:24:13.871Z,926.07
2018-10-02T05:25:13.941Z,926.08
2018-10-02T05:26:13.993Z,926.08
2018-10-02T05:27:14.084Z,926.11
2018-10-02T05:28:14.368Z,926.11
2018-10-02T05:29:14.112Z,926.09
2018-10-02T05:30:14.170Z,926.09
2018-10-02T05:31:14.199Z,926.14
2018-10-02T05:32:14.270Z,926.11
2018-10-02T05:33:14.370Z,926.11
2018-10-02T05:34:14.350Z,926.05
2018-10-02T05:35:14.496Z,926.06
2018-10-02T05:36:14.469Z,926.06
2018-10-02T05:37:14.467Z,926.06
2018-10-02T05:38:14.533Z,926.06
2018-10-02T05:39:14.547Z,926.05
2018-10-02T05:40:14.618Z,926.05
2018-10-02T05:41:14.698Z,926.04
2018-10-02T05:42:14.758Z,926.09
2018-10-02T05:43:14.755Z,926.11
2018-10-02T05:44:14.808Z,926.12
2018-10-02T05:45:14.839Z,926.16
2018-10-02T05:46:14.876Z,926.20
2018-10-02T05:47:14.925Z,926.20
2018-10-02T05:48:14.969Z,926.23
2018-10-02T05:49:15.281Z,926.21
2018-10-02T05:50:15.065Z,926.18
2018-10-02T05:51:15.110Z,926.17
2018-10-02T05:52:15.153Z,926.19
2018-10-02T05:53:15.202Z,926.17
2018-10-02T05:54:15.250Z,926.20
2018-10-02T05:55:15.313Z,926.19
2018-10-02T05:56:15.361Z,926.21
2018-10-02T05:57:15.362Z,926.21
2018-10-02T05:58:15.491Z,926.22
2018-10-02T05:59:15.468Z,926.21
2018-10-02T06:00:15.510Z,926.20
2018-10-02T06:01:15.552Z,926.16
2018-10-02T06:02:15.638Z,926.14
2018-10-02T06:03:15.653Z,926.11
2018-10-02T06:04:15.751Z,926.11
2018-10-02T06:05:15.747Z,926.11
2018-10-02T06:06:15.800Z,926.09
2018-10-02T06:07:15.833Z,926.05
2018-10-02T06:08:15.882Z,926.07
2018-10-02T06:09:15.913Z,926.08
2018-10-02T06:10:15.976Z,926.09
2018-10-02T06:11:16.105Z,926.15
2018-10-02T06:12:16.043Z,926.08
2018-10-02T06:13:16.094Z,926.10
2018-10-02T06:14:16.143Z,926.08
2018-10-02T06:15:16.168Z,926.08
2018-10-02T06:16:16.231Z,926.06
2018-10-02T06:17:16.267Z,926.07
2018-10-02T06:18:16.318Z,926.04
2018-10-02T06:19:16.397Z,926.11
2018-10-02T06:20:16.414Z,926.15
2018-10-02T06:21:16.463Z,926.18
2018-10-02T06:22:16.497Z,926.25
2018-10-02T06:23:16.541Z,926.25
2018-10-02T06:24:16.575Z,926.26
2018-10-02T06:25:16.648Z,926.28
2018-10-02T06:26:16.684Z,926.23
2018-10-02T06:27:16.718Z,926.27
2018-10-02T06:28:16.779Z,926.30
2018-10-02T06:29:16.823Z,926.30
2018-10-02T06:30:16.861Z,926.30
2018-10-02T06:31:16.947Z,926.36
2018-10-02T06:32:16.954Z,926.32
2018-10-02T06:33:16.986Z,926.38
2018-10-02T06:34:17.036Z,926.39
2018-10-02T06:35:17.087Z,926.36
2018-10-02T06:36:17.134Z,926.38
2018-10-02T06:37:17.178Z,926.35
2018-10-02T06:38:17.323Z,926.35
2018-10-02T06:39:17.364Z,926.37
2018-10-02T06:40:17.320Z,926.39
2018-10-02T06:41:17.354Z,926.42
2018-10-02T06:42:17.398Z,926.45
2018-10-02T06:43:17.458Z,926.47
2018-10-02T06:44:17.506Z,926.47
2018-10-02T06:45:17.538Z,926.50
2018-10-02T06:46:17.580Z,926.51
2018-10-02T06:47:17.627Z,926.54
2018-10-02T06:48:17.661Z,926.55
2018-10-02T06:49:17.704Z,926.56
2018-10-02T06:50:18.067Z,926.54
2018-10-02T06:51:17.887Z,926.51
2018-10-02T06:52:18.176Z,926.50
2018-10-02T06:53:17.906Z,926.52
2018-10-02T06:54:17.937Z,926.54
2018-10-02T06:55:17.973Z,926.53
2018-10-02T06:56:18.027Z,926.55
2018-10-02T06:57:18.062Z,926.60
2018-10-02T06:58:18.097Z,926.60
2018-10-02T06:59:18.179Z,926.63
2018-10-02T07:00:18.215Z,926.64
2018-10-02T07:01:18.395Z,926.64
2018-10-02T07:02:18.335Z,926.62
2018-10-02T07:03:18.392Z,926.58
2018-10-02T07:04:18.405Z,926.60
2018-10-02T07:05:18.444Z,926.56
2018-10-02T07:06:18.796Z,926.52
2018-10-02T07:07:18.526Z,926.53
2018-10-02T07:08:18.558Z,926.48
2018-10-02T07:09:18.606Z,926.49
2018-10-02T07:10:18.662Z,926.47
2018-10-02T07:11:18.698Z,926.44
2018-10-02T07:12:18.788Z,926.44
2018-10-02T07:13:18.799Z,926.45
2018-10-02T07:14:18.894Z,926.48
2018-10-02T07:15:18.920Z,926.47
2018-10-02T07:16:18.925Z,926.49
2018-10-02T07:17:19.007Z,926.56
2018-10-02T07:18:19.008Z,926.58
2018-10-02T07:19:19.064Z,926.58
2018-10-02T07:20:19.092Z,926.59
2018-10-02T07:21:19.137Z,926.57
2018-10-02T07:22:19.279Z,926.59
2018-10-02T07:23:19.226Z,926.62
2018-10-02T07:24:19.276Z,926.59
2018-10-02T07:25:19.374Z,926.58
2018-10-02T07:26:19.363Z,926.57
2018-10-02T07:27:19.600Z,926.51
2018-10-02T07:28:19.507Z,926.53
2018-10-02T07:29:19.521Z,926.55
2018-10-02T07:30:19.595Z,926.52
2018-10-02T07:31:19.594Z,926.52
2018-10-02T07:32:19.676Z,926.55
2018-10-02T07:33:19.778Z,926.55
2018-10-02T07:34:19.722Z,926.58
2018-10-02T07:35:19.774Z,926.57
2018-10-02T07:36:19.863Z,926.59
2018-10-02T07:37:19.886Z,926.60
2018-10-02T07:38:19.886Z,926.59
2018-10-02T07:39:19.993Z,926.61
2018-10-02T07:40:19.985Z,926.58
2018-10-02T07:41:20.022Z,926.67
2018-10-02T07:42:20.103Z,926.69
2018-10-02T07:43:20.122Z,926.72
2018-10-02T07:44:20.287Z,926.72
2018-10-02T07:45:20.194Z,926.74
2018-10-02T07:46:20.265Z,926.80
2018-10-02T07:47:20.295Z,926.79
2018-10-02T07:48:20.429Z,926.85
2018-10-02T07:49:20.382Z,926.90
2018-10-02T07:50:20.552Z,926.86
2018-10-02T07:51:20.491Z,926.88
2018-10-02T07:52:20.565Z,926.90
2018-10-02T07:53:20.578Z,926.88
2018-10-02T07:54:20.619Z,926.90
2018-10-02T07:55:20.668Z,926.87
2018-10-02T07:56:20.711Z,926.84
2018-10-02T07:57:20.740Z,926.88
2018-10-02T07:58:20.839Z,926.88
2018-10-02T07:59:20.844Z,926.84
2018-10-02T08:00:20.869Z,926.87
2018-10-02T08:01:20.949Z,926.83
2018-10-02T08:02:21.257Z,926.83
2018-10-02T08:03:21.065Z,926.82
2018-10-02T08:04:21.069Z,926.81
2018-10-02T08:05:21.138Z,926.83
2018-10-02T08:06:21.168Z,926.87
2018-10-02T08:07:21.203Z,926.89
2018-10-02T08:08:21.239Z,926.85
2018-10-02T08:09:21.296Z,926.90
2018-10-02T08:10:21.380Z,926.88
2018-10-02T08:11:21.432Z,926.93
2018-10-02T08:12:21.542Z,926.93
2018-10-02T08:13:21.743Z,926.96
2018-10-02T08:14:21.537Z,926.88
2018-10-02T08:15:21.577Z,926.87
2018-10-02T08:16:21.602Z,926.85
2018-10-02T08:17:21.732Z,926.85
2018-10-02T08:18:21.687Z,926.80
2018-10-02T08:19:21.729Z,926.77
2018-10-02T08:20:21.819Z,926.72
2018-10-02T08:21:21.867Z,926.68
2018-10-02T08:22:21.875Z,926.69
2018-10-02T08:23:21.927Z,926.67
2018-10-02T08:24:21.975Z,926.66
2018-10-02T08:25:21.966Z,926.62
2018-10-02T08:26:22.111Z,926.63
2018-10-02T08:27:22.147Z,926.58
2018-10-02T08:28:22.154Z,926.58
2018-10-02T08:29:22.371Z,926.58
2018-10-02T08:30:22.594Z,926.58
2018-10-02T08:31:22.281Z,926.60
2018-10-02T08:32:22.387Z,926.60
2018-10-02T08:33:22.349Z,926.60
2018-10-02T08:34:22.389Z,926.62
2018-10-02T08:35:22.637Z,926.58
2018-10-02T08:36:22.650Z,926.62
2018-10-02T08:37:22.514Z,926.60
2018-10-02T08:38:22.629Z,926.55
2018-10-02T08:39:22.634Z,926.63
2018-10-02T08:40:22.665Z,926.63
2018-10-02T08:41:22.757Z,926.63
2018-10-02T08:42:22.749Z,926.59
2018-10-02T08:43:22.860Z,926.67
2018-10-02T08:44:22.847Z,926.60
2018-10-02T08:45:22.973Z,926.61
2018-10-02T08:46:22.923Z,926.62
2018-10-02T08:47:23.020Z,926.62
2018-10-02T08:48:23.024Z,926.60
2018-10-02T08:49:23.090Z,926.58
2018-10-02T08:50:23.151Z,926.58
2018-10-02T08:51:23.148Z,926.56
2018-10-02T08:52:23.191Z,926.55
2018-10-02T08:53:23.251Z,926.54
2018-10-02T08:54:23.287Z,926.52
2018-10-02T08:55:23.410Z,926.52
2018-10-02T08:56:23.356Z,926.56
2018-10-02T08:57:23.408Z,926.54
2018-10-02T08:58:23.504Z,926.55
2018-10-02T08:59:23.505Z,926.56
2018-10-02T09:00:23.552Z,926.55
2018-10-02T09:01:23.885Z,926.58
2018-10-02T09:02:23.628Z,926.59
2018-10-02T09:03:23.670Z,926.59
2018-10-02T09:04:23.729Z,926.58
2018-10-02T09:05:23.769Z,926.61
2018-10-02T09:06:23.913Z,926.61
2018-10-02T09:07:23.870Z,926.57
2018-10-02T09:08:23.905Z,926.57
2018-10-02T09:09:23.940Z,926.57
2018-10-02T09:10:23.996Z,926.55
2018-10-02T09:11:24.075Z,926.56
2018-10-02T09:12:24.149Z,926.54
2018-10-02T09:13:24.103Z,926.57
2018-10-02T09:14:24.155Z,926.60
2018-10-02T09:15:24.290Z,926.61
2018-10-02T09:16:24.309Z,926.61
2018-10-02T09:17:24.399Z,926.61
2018-10-02T09:18:24.345Z,926.62
2018-10-02T09:19:24.398Z,926.68
2018-10-02T09:20:24.442Z,926.66
2018-10-02T09:21:24.505Z,926.67
2018-10-02T09:22:24.543Z,926.66
2018-10-02T09:23:24.582Z,926.69
2018-10-02T09:24:24.693Z,926.66
2018-10-02T09:25:24.668Z,926.70
2018-10-02T09:26:24.704Z,926.68
2018-10-02T09:27:24.860Z,926.67
2018-10-02T09:28:24.788Z,926.70
2018-10-02T09:29:24.842Z,926.72
2018-10-02T09:30:25.035Z,926.75
2018-10-02T09:31:24.919Z,926.78
2018-10-02T09:32:24.956Z,926.80
2018-10-02T09:33:25.038Z,926.81
2018-10-02T09:34:25.092Z,926.84
2018-10-02T09:35:25.118Z,926.85
2018-10-02T09:36:25.179Z,926.89
2018-10-02T09:37:25.277Z,926.91
2018-10-02T09:38:25.348Z,926.94
2018-10-02T09:39:25.323Z,926.93
2018-10-02T09:40:25.328Z,926.95
2018-10-02T09:41:25.374Z,926.98
2018-10-02T09:42:25.488Z,926.99
2018-10-02T09:43:25.498Z,927.04
2018-10-02T09:44:25.526Z,927.08
2018-10-02T09:45:25.633Z,927.13
2018-10-02T09:46:25.623Z,927.14
2018-10-02T09:47:25.681Z,927.16
2018-10-02T09:48:25.734Z,927.22
2018-10-02T09:49:25.746Z,927.18
2018-10-02T09:50:25.833Z,927.22
2018-10-02T09:51:25.832Z,927.25
2018-10-02T09:52:25.903Z,927.26
2018-10-02T09:53:25.947Z,927.29
2018-10-02T09:54:26.063Z,927.30
2018-10-02T09:55:26.029Z,927.34
2018-10-02T09:56:26.081Z,927.38
2018-10-02T09:57:26.122Z,927.40
2018-10-02T09:58:26.188Z,927.42
2018-10-02T09:59:26.209Z,927.41
2018-10-02T10:00:26.311Z,927.41
2018-10-02T10:01:26.427Z,927.44
2018-10-02T10:02:26.420Z,927.49
2018-10-02T10:03:26.385Z,927.52
2018-10-02T10:04:26.537Z,927.57
2018-10-02T10:05:26.477Z,927.61
2018-10-02T10:06:26.525Z,927.67
2018-10-02T10:07:26.597Z,927.69
2018-10-02T10:08:26.645Z,927.76
2018-10-02T10:09:26.686Z,927.78
2018-10-02T10:10:26.784Z,927.84
2018-10-02T10:11:26.877Z,927.89
2018-10-02T10:12:26.848Z,927.95
2018-10-02T10:13:26.873Z,927.93
2018-10-02T10:14:26.927Z,927.96
2018-10-02T10:15:26.941Z,928.00
2018-10-02T10:16:27.092Z,928.05
2018-10-02T10:17:27.112Z,928.03
2018-10-02T10:18:27.095Z,928.05
2018-10-02T10:19:27.156Z,928.07
2018-10-02T10:20:27.201Z,928.12
2018-10-02T10:21:27.249Z,928.12
2018-10-02T10:22:27.455Z,928.19
2018-10-02T10:23:27.353Z,928.25
2018-10-02T10:24:27.411Z,928.25
2018-10-02T10:25:27.442Z,928.25
2018-10-02T10:26:27.543Z,928.31
2018-10-02T10:27:27.801Z,928.32
2018-10-02T10:28:27.640Z,928.33
2018-10-02T10:29:27.625Z,928.33
2018-10-02T10:30:27.699Z,928.33
2018-10-02T10:31:27.724Z,928.30
2018-10-02T10:32:27.866Z,928.27
2018-10-02T10:33:27.882Z,928.30
2018-10-02T10:34:27.900Z,928.31
2018-10-02T10:35:27.926Z,928.36
2018-10-02T10:36:27.981Z,928.34
2018-10-02T10:37:28.017Z,928.42
2018-10-02T10:38:28.105Z,928.50
2018-10-02T10:39:28.117Z,928.48
2018-10-02T10:40:28.188Z,928.48
2018-10-02T10:41:28.218Z,928.50
2018-10-02T10:42:28.352Z,928.54
2018-10-02T10:43:28.306Z,928.56
2018-10-02T10:44:28.369Z,928.56
2018-10-02T10:45:28.423Z,928.58
2018-10-02T10:46:28.512Z,928.61
2018-10-02T10:47:28.528Z,928.62
2018-10-02T10:48:28.561Z,928.64
2018-10-02T10:49:28.597Z,928.59
2018-10-02T10:50:28.695Z,928.59
2018-10-02T10:51:28.715Z,928.56
2018-10-02T10:52:28.926Z,928.56
2018-10-02T10:53:28.793Z,928.54
2018-10-02T10:54:28.850Z,928.54
2018-10-02T10:55:28.933Z,928.55
2018-10-02T10:56:28.959Z,928.55
2018-10-02T10:57:29.012Z,928.59
2018-10-02T10:58:29.056Z,928.60
2018-10-02T10:59:29.133Z,928.59
2018-10-02T11:00:29.149Z,928.64
2018-10-02T11:01:29.182Z,928.64
2018-10-02T11:02:29.348Z,928.68
2018-10-02T11:03:29.335Z,928.70
2018-10-02T11:04:29.404Z,928.70
2018-10-02T11:05:29.379Z,928.77
2018-10-02T11:06:29.443Z,928.75
2018-10-02T11:07:29.474Z,928.80
2018-10-02T11:08:29.661Z,928.76
2018-10-02T11:09:29.614Z,928.73
2018-10-02T11:10:29.644Z,928.74
2018-10-02T11:11:29.697Z,928.77
2018-10-02T11:12:29.724Z,928.77
2018-10-02T11:13:29.796Z,928.82
2018-10-02T11:14:29.843Z,928.80
2018-10-02T11:15:29.887Z,928.80
2018-10-02T11:16:29.939Z,928.79
2018-10-02T11:17:29.983Z,928.82
2018-10-02T11:18:30.028Z,928.79
2018-10-02T11:19:30.226Z,928.80
2018-10-02T11:20:30.150Z,928.83
2018-10-02T11:21:30.201Z,928.86
2018-10-02T11:22:30.264Z,928.90
2018-10-02T11:23:30.295Z,928.95
2018-10-02T11:24:30.395Z,928.91
2018-10-02T11:25:30.531Z,928.91
2018-10-02T11:26:30.473Z,928.91
2018-10-02T11:27:30.516Z,928.83
2018-10-02T11:28:30.614Z,928.82
2018-10-02T11:29:30.660Z,928.78
2018-10-02T11:30:30.689Z,928.73
2018-10-02T11:31:30.737Z,928.73
2018-10-02T11:32:30.796Z,928.68
2018-10-02T11:33:30.839Z,928.71
2018-10-02T11:34:30.953Z,928.68
2018-10-02T11:35:30.999Z,928.67
2018-10-02T11:36:31.021Z,928.66
2018-10-02T11:37:31.143Z,928.62
2018-10-02T11:38:31.145Z,928.64
2018-10-02T11:39:31.195Z,928.63
2018-10-02T11:40:31.291Z,928.59
2018-10-02T11:41:31.311Z,928.58
2018-10-02T11:42:31.403Z,928.54
2018-10-02T11:43:31.448Z,928.53
2018-10-02T11:44:31.541Z,928.52
2018-10-02T11:45:31.536Z,928.55
2018-10-02T11:46:31.613Z,928.59
2018-10-02T11:47:31.699Z,928.54
2018-10-02T11:48:31.697Z,928.63
2018-10-02T11:49:31.873Z,928.65
2018-10-02T11:50:31.874Z,928.65
2018-10-02T11:51:32.004Z,928.66
2018-10-02T11:52:31.949Z,928.60
2018-10-02T11:53:31.991Z,928.60
2018-10-02T11:54:32.076Z,928.58
2018-10-02T11:55:32.182Z,928.58
2018-10-02T11:56:32.202Z,928.60
2018-10-02T11:57:32.380Z,928.58
2018-10-02T11:58:32.302Z,928.54
2018-10-02T11:59:32.364Z,928.53
2018-10-02T12:00:32.425Z,928.51
2018-10-02T12:01:32.481Z,928.53
2018-10-02T12:02:32.525Z,928.54
2018-10-02T12:03:32.815Z,928.57
2018-10-02T12:04:32.689Z,928.56
2018-10-02T12:05:32.698Z,928.58
2018-10-02T12:06:32.775Z,928.56
2018-10-02T12:07:32.846Z,928.53
2018-10-02T12:08:32.990Z,928.50
2018-10-02T12:09:32.957Z,928.51
2018-10-02T12:10:33.019Z,928.48
2018-10-02T12:11:33.118Z,928.50
2018-10-02T12:12:33.135Z,928.50
2018-10-02T12:13:33.392Z,928.47
2018-10-02T12:14:33.454Z,928.43
2018-10-02T12:15:33.351Z,928.42
2018-10-02T12:16:33.376Z,928.36
2018-10-02T12:17:33.438Z,928.35
2018-10-02T12:18:33.495Z,928.35
2018-10-02T12:19:33.755Z,928.33
2018-10-02T12:20:33.596Z,928.31
2018-10-02T12:21:33.710Z,928.39
2018-10-02T12:22:33.706Z,928.35
2018-10-02T12:23:33.799Z,928.37
2018-10-02T12:24:33.859Z,928.38
2018-10-02T12:25:33.951Z,928.37
2018-10-02T12:26:33.971Z,928.35
2018-10-02T12:27:34.046Z,928.32
2018-10-02T12:28:34.094Z,928.29
2018-10-02T12:29:34.162Z,928.26